Time;durP1;ratioP1;P1;durP2;ratioP2;P2;SDS_P1;SDS_P2;PMS_P1;PMS_P2;Temp;Humidity;BMP_temperature;BMP_pressure;BME280_temperature;BME280_humidity;BME280_pressure;Samples;Min_cycle;Max_cycle;Signal;HPM_P1;HPM_P2
2021/06/06 09:36:34;;;;;;;10.25;7.40;;;20.10;85.00;;;;;;5032047;23;20052;-70
2021/06/06 09:39:02;;;;;;;8.32;6.65;;;20.10;85.00;;;;;;4952528;29;20039;-70
2021/06/06 09:41:36;;;;;;;8.32;6.82;;;20.00;84.90;;;;;;4947069;29;20106;-71
2021/06/06 09:44:05;;;;;;;9.32;7.05;;;19.90;86.30;;;;;;4934257;29;20090;-71
2021/06/06 09:46:42;;;;;;;8.48;6.47;;;20.00;84.80;;;;;;4918335;29;20118;-72
2021/06/06 09:49:28;;;;;;;6.43;5.80;;;19.90;84.90;;;;;;4934861;29;20083;-67
2021/06/06 09:52:10;;;;;;;7.50;6.35;;;19.90;85.30;;;;;;4937125;29;20020;-66
2021/06/06 09:54:37;;;;;;;7.20;6.13;;;19.70;85.70;;;;;;4953215;29;20129;-62
2021/06/06 09:57:13;;;;;;;8.32;6.30;;;19.70;85.00;;;;;;4952874;29;20070;-66
2021/06/06 09:59:39;;;;;;;7.43;5.90;;;19.60;85.20;;;;;;4954131;29;20035;-69
2021/06/06 10:02:25;;;;;;;7.85;5.53;;;19.50;85.20;;;;;;4952758;29;20498;-67
2021/06/06 10:05:00;;;;;;;8.85;5.45;;;19.50;85.00;;;;;;4953537;29;20130;-65
2021/06/06 10:07:26;;;;;;;5.63;5.05;;;19.50;86.00;;;;;;4954443;28;20026;-68
2021/06/06 10:09:54;;;;;;;7.50;5.75;;;19.60;85.80;;;;;;4954115;29;20035;-66
2021/06/06 10:12:34;;;;;;;8.45;6.55;;;19.70;85.50;;;;;;4953788;29;20015;-69
2021/06/06 10:15:05;;;;;;;7.25;5.72;;;19.70;84.40;;;;;;4954050;28;20066;-70
2021/06/06 10:17:46;;;;;;;6.18;5.55;;;19.80;84.80;;;;;;4936574;29;20024;-71
2021/06/06 10:20:35;;;;;;;8.38;5.70;;;19.80;85.60;;;;;;4936926;29;20042;-69
2021/06/06 10:23:21;;;;;;;8.00;5.72;;;19.80;84.40;;;;;;4936661;29;20531;-67
2021/06/06 10:26:13;;;;;;;5.72;4.90;;;19.90;84.50;;;;;;4953343;29;20034;-74
2021/06/06 10:28:47;;;;;;;6.93;5.10;;;20.00;85.40;;;;;;4954256;29;20023;-78
2021/06/06 10:31:17;;;;;;;7.20;4.90;;;20.20;84.00;;;;;;4937003;29;20023;-75
2021/06/06 10:33:50;;;;;;;6.63;4.70;;;20.40;84.00;;;;;;4936593;29;20027;-80
2021/06/06 10:36:19;;;;;;;5.03;4.20;;;20.60;83.60;;;;;;4953845;28;20055;-80
2021/06/06 10:38:46;;;;;;;6.25;4.30;;;20.80;82.40;;;;;;4953290;29;20031;-80
2021/06/06 10:41:33;;;;;;;4.72;4.22;;;20.90;81.70;;;;;;4953963;29;20051;-77
2021/06/06 10:44:33;;;;;;;6.63;4.50;;;20.90;81.10;;;;;;4953535;29;20019;-76
2021/06/06 10:47:10;;;;;;;5.50;4.47;;;21.00;81.20;;;;;;4942360;28;20127;-73
2021/06/06 10:49:46;;;;;;;5.82;4.43;;;21.10;80.20;;;;;;4954120;29;20035;-68
2021/06/06 10:52:32;;;;;;;5.95;4.65;;;21.30;80.60;;;;;;4936557;29;20508;-67
2021/06/06 10:55:18;;;;;;;5.03;4.45;;;21.30;79.90;;;;;;4953657;29;20027;-65
2021/06/06 10:57:44;;;;;;;5.20;4.15;;;21.20;79.50;;;;;;4943138;29;20127;-66
2021/06/06 11:00:46;;;;;;;4.72;4.32;;;20.90;80.50;;;;;;4935889;29;20054;-67
2021/06/06 11:03:12;;;;;;;5.45;4.25;;;20.70;81.80;;;;;;4950751;29;20059;-66
2021/06/06 11:05:43;;;;;;;6.05;4.43;;;20.70;81.80;;;;;;4954147;29;20058;-73
2021/06/06 11:08:40;;;;;;;6.55;3.67;;;20.80;81.70;;;;;;4953457;29;20016;-76
2021/06/06 11:11:23;;;;;;;8.10;4.70;;;21.00;81.40;;;;;;4952457;29;20055;-68
2021/06/06 11:13:48;;;;;;;7.18;5.53;;;21.30;81.10;;;;;;4953084;29;20015;-67
2021/06/06 11:16:17;;;;;;;5.53;4.38;;;21.50;79.20;;;;;;4953616;29;20497;-65
2021/06/06 11:18:58;;;;;;;6.05;4.80;;;21.60;78.70;;;;;;4953793;29;20027;-65
2021/06/06 11:21:36;;;;;;;6.70;4.70;;;21.70;78.50;;;;;;4952782;29;20086;-68
2021/06/06 11:24:07;;;;;;;6.13;4.53;;;21.80;78.40;;;;;;4953182;29;20350;-68
2021/06/06 11:26:33;;;;;;;6.10;4.40;;;22.10;78.60;;;;;;4937152;29;20419;-68
2021/06/06 11:29:19;;;;;;;4.60;4.15;;;22.30;78.00;;;;;;4956046;29;20024;-64
2021/06/06 11:32:00;;;;;;;4.82;4.00;;;22.40;76.70;;;;;;4939689;29;20438;-65
2021/06/06 11:34:32;;;;;;;5.45;4.07;;;22.40;76.30;;;;;;4956830;28;20043;-67
2021/06/06 11:37:32;;;;;;;7.00;4.35;;;22.30;75.90;;;;;;4955804;28;20047;-65
2021/06/06 11:40:01;;;;;;;6.50;4.15;;;22.30;75.90;;;;;;4956473;29;20030;-65
2021/06/06 11:42:35;;;;;;;5.05;3.72;;;22.40;75.20;;;;;;4956241;29;20034;-65
2021/06/06 11:45:23;;;;;;;4.93;3.95;;;22.40;75.20;;;;;;4939211;29;20494;-66
2021/06/06 11:47:53;;;;;;;6.07;3.60;;;22.40;75.00;;;;;;4955923;28;20048;-66
2021/06/06 11:50:38;;;;;;;4.43;3.45;;;22.50;75.30;;;;;;4956352;29;20523;-65
2021/06/06 11:53:12;;;;;;;4.32;3.92;;;22.60;74.80;;;;;;4956266;29;20086;-65
2021/06/06 11:55:43;;;;;;;5.57;3.47;;;22.70;74.30;;;;;;4956503;29;20027;-66
2021/06/06 11:58:11;;;;;;;;;;;22.70;74.10;;;;;;4956428;29;20034;-67
2021/06/06 12:00:39;;;;;;;5.93;3.58;;;22.70;74.10;;;;;;4956480;28;19910;-66
2021/06/06 12:03:16;;;;;;;7.10;3.72;;;22.50;73.80;;;;;;4950933;29;20027;-65
2021/06/06 12:06:06;;;;;;;4.47;3.10;;;22.20;74.50;;;;;;4952902;29;20124;-63
2021/06/06 12:08:33;;;;;;;4.85;2.90;;;21.90;74.80;;;;;;4953010;29;20058;-65
2021/06/06 12:11:02;;;;;;;4.63;3.15;;;21.80;76.80;;;;;;4951955;29;20035;-69
2021/06/06 12:13:39;;;;;;;5.30;3.08;;;21.90;76.00;;;;;;4935215;29;20106;-65
2021/06/06 12:16:07;;;;;;;3.83;2.83;;;22.10;75.60;;;;;;4952576;29;20486;-64
2021/06/06 12:18:33;;;;;;;4.68;2.90;;;22.10;74.50;;;;;;4934802;29;20110;-68
2021/06/06 12:21:19;;;;;;;3.25;2.80;;;22.20;75.20;;;;;;4935680;29;20122;-67
2021/06/06 12:23:51;;;;;;;4.05;2.90;;;22.30;74.10;;;;;;4952136;29;20023;-68
2021/06/06 12:26:26;;;;;;;7.80;3.03;;;22.20;74.30;;;;;;4951059;28;20119;-67
2021/06/06 12:28:54;;;;;;;4.78;3.10;;;22.20;75.20;;;;;;4952189;29;20431;-66
2021/06/06 12:31:27;;;;;;;4.13;3.00;;;22.20;75.60;;;;;;4952085;28;20129;-68
2021/06/06 12:33:53;;;;;;;3.13;2.70;;;22.30;75.80;;;;;;4952185;29;20033;-69
2021/06/06 12:36:27;;;;;;;2.90;2.70;;;22.40;73.20;;;;;;4952379;28;20054;-72
2021/06/06 12:38:57;;;;;;;3.03;2.70;;;22.30;72.70;;;;;;4950240;28;20432;-72
2021/06/06 12:41:23;;;;;;;4.20;2.90;;;22.40;74.00;;;;;;4952409;29;20051;-70
2021/06/06 12:43:52;;;;;;;3.75;2.42;;;22.50;72.40;;;;;;4952194;29;20465;-77
2021/06/06 12:46:19;;;;;;;4.00;2.80;;;22.70;69.90;;;;;;4952451;28;20102;-70
2021/06/06 12:49:01;;;;;;;3.47;2.47;;;22.80;69.70;;;;;;4953355;29;20396;-68
2021/06/06 12:51:50;;;;;;;3.20;2.22;;;22.80;69.60;;;;;;4951941;29;20038;-64
2021/06/06 12:54:23;;;;;;;3.03;2.17;;;22.80;70.20;;;;;;4951447;29;20019;-64
2021/06/06 12:56:51;;;;;;;3.13;2.80;;;22.80;70.40;;;;;;4952108;28;20035;-65
2021/06/06 12:59:23;;;;;;;3.30;2.60;;;22.70;71.10;;;;;;4951192;29;20031;-66
2021/06/06 13:02:01;;;;;;;4.80;3.20;;;22.60;71.10;;;;;;4951247;29;20042;-63
2021/06/06 13:04:27;;;;;;;3.65;2.70;;;22.50;71.30;;;;;;4951787;29;20027;-65
2021/06/06 13:06:54;;;;;;;4.70;3.47;;;22.60;71.20;;;;;;4950991;28;20082;-64
2021/06/06 13:09:28;;;;;;;3.72;2.55;;;22.90;71.10;;;;;;4951913;29;20079;-65
2021/06/06 13:12:10;;;;;;;4.70;3.50;;;23.00;70.60;;;;;;4951751;29;20039;-66
2021/06/06 13:14:38;;;;;;;3.38;2.30;;;23.00;70.20;;;;;;4950639;29;20475;-64
2021/06/06 13:17:12;;;;;;;2.22;2.05;;;22.80;69.80;;;;;;4951152;28;20027;-64
2021/06/06 13:19:40;;;;;;;3.25;2.40;;;22.60;70.90;;;;;;4951742;29;20059;-69
2021/06/06 13:22:10;;;;;;;3.95;2.65;;;22.60;71.20;;;;;;4950766;29;20126;-69
2021/06/06 13:24:47;;;;;;;5.07;2.70;;;22.70;71.10;;;;;;4934422;29;20499;-75
2021/06/06 13:27:34;;;;;;;3.53;2.22;;;22.80;71.50;;;;;;4951226;29;20034;-73
2021/06/06 13:30:39;;;;;;;2.60;2.40;;;22.90;70.10;;;;;;4951158;29;20090;-72
2021/06/06 13:33:11;;;;;;;3.40;2.33;;;23.00;70.90;;;;;;4921486;29;20043;-71
2021/06/06 13:35:37;;;;;;;4.03;2.65;;;23.10;70.70;;;;;;4951131;29;20122;-70
2021/06/06 13:38:04;;;;;;;2.28;2.08;;;23.10;70.00;;;;;;4950726;28;20055;-72
2021/06/06 13:40:33;;;;;;;2.40;2.20;;;23.10;70.10;;;;;;4951416;29;20050;-71
2021/06/06 13:42:59;;;;;;;2.60;2.10;;;23.20;69.00;;;;;;4933600;29;20491;-68
2021/06/06 13:45:27;;;;;;;3.88;2.15;;;23.20;69.00;;;;;;4951531;29;20070;-69
2021/06/06 13:47:54;;;;;;;2.75;2.55;;;23.30;69.10;;;;;;4951242;28;20027;-66
2021/06/06 13:50:21;;;;;;;3.67;2.40;;;23.30;67.20;;;;;;4938622;29;20031;-74
2021/06/06 13:52:47;;;;;;;3.15;2.45;;;23.20;68.10;;;;;;4946869;28;20042;-74
2021/06/06 13:55:20;;;;;;;3.38;3.05;;;23.10;68.70;;;;;;4952181;28;20027;-70
2021/06/06 13:57:47;;;;;;;3.20;2.22;;;23.00;68.80;;;;;;4950163;28;20021;-68
2021/06/06 14:00:16;;;;;;;4.68;4.15;;;22.90;69.40;;;;;;4951126;29;20020;-75
2021/06/06 14:02:45;;;;;;;3.65;2.45;;;23.00;70.10;;;;;;4949645;29;20035;-72
2021/06/06 14:05:11;;;;;;;3.38;2.60;;;23.00;68.40;;;;;;4950128;28;20024;-74
2021/06/06 14:07:37;;;;;;;3.22;2.47;;;23.10;68.80;;;;;;4946034;28;20392;-72
2021/06/06 14:10:09;;;;;;;3.20;2.50;;;23.10;68.40;;;;;;4913478;29;20036;-75
2021/06/06 14:12:34;;;;;;;3.55;2.55;;;23.00;68.10;;;;;;4914384;29;20031;-72
2021/06/06 14:15:00;;;;;;;3.63;2.50;;;23.00;68.50;;;;;;4931228;29;20031;-70
2021/06/06 14:17:26;;;;;;;3.67;2.42;;;22.90;68.70;;;;;;4931028;29;20023;-69
2021/06/06 14:19:51;;;;;;;3.63;2.17;;;22.60;68.90;;;;;;4930936;29;20036;-68
2021/06/06 14:22:17;;;;;;;6.47;2.80;;;22.50;70.30;;;;;;4931387;29;20391;-67
2021/06/06 14:24:42;;;;;;;2.45;2.22;;;22.50;69.90;;;;;;4930693;29;20059;-68
2021/06/06 14:27:08;;;;;;;5.88;2.70;;;22.40;69.90;;;;;;4931081;29;20035;-67
2021/06/06 14:29:36;;;;;;;3.08;2.38;;;22.30;70.70;;;;;;4930854;29;20043;-69
2021/06/06 14:32:02;;;;;;;7.18;2.40;;;22.40;71.00;;;;;;4913124;29;20023;-70
2021/06/06 14:34:28;;;;;;;5.10;2.63;;;22.50;68.30;;;;;;4914009;29;20115;-69
2021/06/06 14:36:53;;;;;;;3.05;2.50;;;22.60;69.40;;;;;;4930555;29;20500;-70
2021/06/06 14:39:19;;;;;;;3.40;2.20;;;22.80;69.00;;;;;;4930530;29;20563;-69
2021/06/06 14:41:47;;;;;;;5.05;2.40;;;23.00;69.40;;;;;;4930706;29;20059;-67
2021/06/06 14:44:13;;;;;;;3.65;2.28;;;23.30;68.50;;;;;;4936241;29;20110;-67
2021/06/06 14:46:39;;;;;;;3.22;2.15;;;23.50;67.50;;;;;;4949803;29;20531;-71
2021/06/06 14:49:05;;;;;;;5.90;2.90;;;23.70;67.70;;;;;;4949738;29;20038;-68
2021/06/06 14:51:33;;;;;;;4.05;2.45;;;23.70;66.50;;;;;;4948519;29;20027;-80
2021/06/06 14:53:59;;;;;;;5.80;3.40;;;23.60;66.00;;;;;;4952733;29;20023;-76
2021/06/06 14:56:25;;;;;;;4.95;2.72;;;23.40;66.70;;;;;;4953908;28;20499;-81
2021/06/06 14:58:51;;;;;;;2.92;2.13;;;23.30;66.40;;;;;;4952893;29;20361;-76
2021/06/06 15:01:24;;;;;;;6.85;3.00;;;23.20;67.10;;;;;;4935982;29;20037;-76
2021/06/06 15:03:50;;;;;;;3.78;2.47;;;23.10;68.00;;;;;;4957111;29;20034;-78
2021/06/06 15:06:18;;;;;;;2.83;1.92;;;23.10;67.90;;;;;;4956654;29;20019;-78
2021/06/06 15:08:43;;;;;;;4.22;2.42;;;23.10;68.70;;;;;;4956721;29;20506;-71
2021/06/06 15:11:09;;;;;;;4.30;2.40;;;23.20;67.70;;;;;;4957156;29;20039;-75
2021/06/06 15:13:37;;;;;;;3.47;2.90;;;23.30;67.10;;;;;;4956382;28;20098;-75
2021/06/06 15:16:06;;;;;;;4.72;2.35;;;23.30;66.70;;;;;;4956626;28;20027;-73
2021/06/06 15:18:32;;;;;;;2.33;1.90;;;23.30;67.40;;;;;;4956302;29;20057;-77
2021/06/06 15:21:02;;;;;;;3.05;2.10;;;23.30;67.30;;;;;;4955945;28;20530;-76
2021/06/06 15:23:29;;;;;;;3.88;2.08;;;23.20;67.10;;;;;;4956795;29;20054;-73
2021/06/06 15:25:56;;;;;;;3.22;1.98;;;23.10;67.50;;;;;;4949007;29;20070;-76
2021/06/06 15:28:22;;;;;;;4.65;2.25;;;23.00;68.00;;;;;;4945188;29;20023;-73
2021/06/06 15:30:50;;;;;;;4.75;2.42;;;22.80;68.00;;;;;;4946047;29;20484;-76
2021/06/06 15:33:22;;;;;;;6.10;2.47;;;22.70;68.70;;;;;;4952569;29;20027;-70
2021/06/06 15:35:49;;;;;;;4.70;2.13;;;22.70;69.40;;;;;;4955713;29;20043;-69
2021/06/06 15:38:16;;;;;;;7.88;4.90;;;22.70;68.60;;;;;;4956924;29;20507;-70
2021/06/06 15:40:44;;;;;;;10.18;6.05;;;22.80;69.90;;;;;;4956151;29;20028;-69
2021/06/06 15:43:12;;;;;;;5.35;3.13;;;23.00;67.90;;;;;;4938458;29;20065;-68
2021/06/06 15:45:40;;;;;;;3.72;2.40;;;22.90;67.80;;;;;;4939756;28;20086;-68
2021/06/06 15:48:07;;;;;;;4.25;2.20;;;22.90;67.10;;;;;;4954380;29;20028;-75
2021/06/06 15:50:34;;;;;;;2.85;2.03;;;22.80;67.10;;;;;;4956636;29;20039;-69
2021/06/06 15:53:01;;;;;;;7.90;2.60;;;22.70;67.60;;;;;;4956606;28;20023;-69
2021/06/06 15:55:27;;;;;;;4.18;2.15;;;22.60;67.70;;;;;;4938924;29;20042;-70
2021/06/06 15:57:54;;;;;;;3.17;2.03;;;22.40;68.40;;;;;;4956485;28;20431;-71
2021/06/06 16:00:27;;;;;;;4.80;1.85;;;22.40;68.50;;;;;;4956190;29;20028;-68
2021/06/06 16:02:54;;;;;;;5.43;2.42;;;22.40;69.00;;;;;;4938304;29;20028;-68
2021/06/06 16:05:21;;;;;;;3.92;2.08;;;22.40;69.00;;;;;;4956025;28;20031;-69
2021/06/06 16:07:48;;;;;;;3.03;1.88;;;22.50;68.30;;;;;;4956121;28;20110;-69
2021/06/06 16:10:15;;;;;;;3.75;1.75;;;22.80;68.20;;;;;;4955712;29;20047;-70
2021/06/06 16:12:42;;;;;;;5.95;1.90;;;23.10;66.30;;;;;;4956499;28;20075;-71
2021/06/06 16:15:08;;;;;;;2.72;1.60;;;23.40;65.70;;;;;;4955103;29;20447;-72
2021/06/06 16:17:34;;;;;;;4.75;2.58;;;23.70;63.90;;;;;;4955471;28;20020;-70
2021/06/06 16:19:59;;;;;;;5.05;2.22;;;23.70;64.80;;;;;;4955733;29;20031;-73
2021/06/06 16:22:26;;;;;;;4.15;1.90;;;23.70;63.20;;;;;;4938927;29;20019;-71
2021/06/06 16:24:53;;;;;;;3.55;1.80;;;24.30;61.80;;;;;;4955153;29;20027;-70
2021/06/06 16:27:19;;;;;;;3.53;2.03;;;24.70;62.00;;;;;;4955992;29;20434;-69
2021/06/06 16:29:44;;;;;;;4.45;2.28;;;24.70;60.60;;;;;;4955412;29;20487;-68
2021/06/06 16:32:10;;;;;;;9.73;7.32;;;24.50;60.70;;;;;;4955468;29;20099;-70
2021/06/06 16:34:36;;;;;;;5.05;3.22;;;24.10;61.50;;;;;;4955553;29;20042;-68
2021/06/06 16:37:01;;;;;;;5.70;2.15;;;23.80;62.20;;;;;;4938103;29;20051;-67
2021/06/06 16:39:27;;;;;;;7.07;2.00;;;23.80;62.60;;;;;;4955042;29;20118;-67
2021/06/06 16:41:53;;;;;;;6.43;3.55;;;23.80;62.50;;;;;;4954764;29;20027;-68
2021/06/06 16:44:18;;;;;;;3.80;2.45;;;23.80;62.60;;;;;;4948115;29;20055;-69
2021/06/06 16:46:44;;;;;;;2.63;1.95;;;24.20;61.90;;;;;;4936443;29;20024;-69
2021/06/06 16:49:10;;;;;;;3.58;1.70;;;25.30;60.20;;;;;;4936003;29;20035;-70
2021/06/06 16:51:35;;;;;;;2.70;1.60;;;25.80;57.50;;;;;;4935720;29;20151;-70
2021/06/06 16:54:01;;;;;;;2.78;1.85;;;25.40;56.70;;;;;;4935982;29;20032;-70
2021/06/06 16:56:27;;;;;;;4.32;1.70;;;25.20;57.70;;;;;;4919123;29;20024;-70
2021/06/06 16:58:52;;;;;;;4.15;1.98;;;25.30;57.80;;;;;;4935329;29;20122;-72
2021/06/06 17:01:21;;;;;;;5.30;2.90;;;26.10;56.50;;;;;;4936217;29;20056;-69
2021/06/06 17:03:48;;;;;;;3.38;1.80;;;27.00;54.80;;;;;;4935945;29;20087;-70
2021/06/06 17:06:14;;;;;;;4.70;2.42;;;27.70;52.70;;;;;;4935012;29;20063;-70
2021/06/06 17:08:41;;;;;;;4.20;1.65;;;28.10;51.50;;;;;;4918944;29;20384;-69
2021/06/06 17:11:07;;;;;;;3.25;1.30;;;28.00;50.10;;;;;;4931657;29;20032;-72
2021/06/06 17:13:35;;;;;;;3.72;1.48;;;28.00;49.40;;;;;;4931918;29;20605;-73
2021/06/06 17:16:04;;;;;;;3.42;1.58;;;28.00;50.60;;;;;;4914491;29;20031;-69
2021/06/06 17:18:30;;;;;;;4.60;2.00;;;28.10;49.40;;;;;;4932566;29;20112;-67
2021/06/06 17:20:59;;;;;;;3.88;1.50;;;28.20;49.80;;;;;;4931537;29;20751;-71
2021/06/06 17:23:32;;;;;;;4.45;1.23;;;28.30;48.30;;;;;;4932488;29;20028;-68
2021/06/06 17:25:58;;;;;;;2.28;1.40;;;28.20;48.40;;;;;;4931200;29;20043;-69
2021/06/06 17:28:28;;;;;;;4.38;1.80;;;28.00;48.60;;;;;;4931321;29;20030;-69
2021/06/06 17:30:55;;;;;;;5.13;1.83;;;28.00;48.70;;;;;;4931809;29;20468;-67
2021/06/06 17:33:22;;;;;;;2.33;1.10;;;28.00;48.70;;;;;;4932184;29;20024;-68
2021/06/06 17:35:48;;;;;;;3.28;1.73;;;28.10;49.10;;;;;;4931311;29;20067;-69
2021/06/06 17:38:18;;;;;;;4.95;1.40;;;28.20;49.00;;;;;;4931740;29;20119;-68
2021/06/06 17:40:44;;;;;;;3.00;1.40;;;28.30;47.90;;;;;;4931431;29;20068;-71
2021/06/06 17:43:12;;;;;;;1.75;1.30;;;28.30;48.20;;;;;;4931652;29;20415;-69
2021/06/06 17:45:38;;;;;;;4.28;1.63;;;28.40;48.30;;;;;;4948824;29;20173;-69
2021/06/06 17:48:04;;;;;;;4.32;1.40;;;28.50;49.30;;;;;;4949955;28;20472;-68
2021/06/06 17:50:33;;;;;;;3.85;1.25;;;28.50;47.70;;;;;;4950115;29;20039;-68
2021/06/06 17:53:00;;;;;;;2.90;1.38;;;28.20;47.60;;;;;;4949916;29;20056;-68
2021/06/06 17:55:36;;;;;;;3.47;1.30;;;28.00;48.30;;;;;;4932301;29;20533;-66
2021/06/06 17:58:05;;;;;;;3.40;1.30;;;27.90;47.80;;;;;;4950128;29;20077;-66
2021/06/06 18:00:32;;;;;;;3.75;1.77;;;27.80;48.50;;;;;;4950440;29;20110;-71
2021/06/06 18:02:59;;;;;;;4.43;2.50;;;27.80;48.00;;;;;;4949555;29;20031;-70
2021/06/06 18:05:25;;;;;;;4.95;2.05;;;27.60;48.70;;;;;;4951130;29;20058;-69
2021/06/06 18:07:52;;;;;;;6.97;1.63;;;27.20;49.10;;;;;;4949860;29;20032;-69
2021/06/06 18:10:19;;;;;;;2.10;1.60;;;26.80;49.70;;;;;;4949847;29;20039;-72
2021/06/06 18:12:45;;;;;;;3.65;1.60;;;26.20;50.50;;;;;;4950991;29;20031;-72
2021/06/06 18:15:12;;;;;;;3.60;1.65;;;25.50;53.70;;;;;;4950405;29;20027;-69
2021/06/06 18:17:38;;;;;;;2.50;1.50;;;24.90;54.30;;;;;;4949484;29;20035;-69
2021/06/06 18:20:07;;;;;;;2.78;1.25;;;24.30;55.20;;;;;;4950129;29;20225;-68
2021/06/06 18:22:32;;;;;;;3.10;1.30;;;23.80;56.70;;;;;;4951239;29;20594;-68
2021/06/06 18:24:58;;;;;;;3.15;1.55;;;23.20;57.50;;;;;;4949338;29;20027;-69
2021/06/06 18:27:24;;;;;;;3.13;1.60;;;22.60;58.60;;;;;;4950241;29;20038;-69
2021/06/06 18:29:49;;;;;;;3.75;1.45;;;22.10;60.40;;;;;;4950111;29;20122;-69
2021/06/06 18:32:16;;;;;;;4.40;1.80;;;21.80;62.50;;;;;;4950448;29;20031;-68
2021/06/06 18:34:42;;;;;;;2.10;1.50;;;21.60;63.00;;;;;;4949936;29;20023;-67
2021/06/06 18:37:08;;;;;;;3.17;1.55;;;21.80;62.60;;;;;;4950600;28;20058;-67
2021/06/06 18:39:34;;;;;;;4.45;1.58;;;22.20;61.00;;;;;;4954174;29;20074;-71
2021/06/06 18:41:59;;;;;;;3.47;1.55;;;22.60;60.90;;;;;;4954151;29;20053;-70
2021/06/06 18:44:28;;;;;;;5.57;1.70;;;22.80;59.60;;;;;;4953856;29;20142;-70
2021/06/06 18:46:54;;;;;;;6.38;1.98;;;22.70;59.40;;;;;;4954166;28;20026;-70
2021/06/06 18:49:21;;;;;;;5.40;1.63;;;22.70;59.80;;;;;;4954363;29;20039;-71
2021/06/06 18:51:47;;;;;;;3.65;2.40;;;22.70;59.70;;;;;;4952131;29;20034;-71
2021/06/06 18:54:14;;;;;;;3.00;1.73;;;22.60;60.00;;;;;;4954346;29;20122;-68
2021/06/06 18:56:41;;;;;;;4.82;2.33;;;22.20;60.70;;;;;;4953892;28;20054;-68
2021/06/06 18:59:09;;;;;;;5.13;1.90;;;21.70;62.10;;;;;;4953183;29;20027;-67
2021/06/06 19:01:38;;;;;;;2.90;1.33;;;21.30;63.70;;;;;;4923991;29;20039;-72
2021/06/06 19:04:05;;;;;;;2.20;1.40;;;20.80;65.20;;;;;;4933750;29;20027;-67
2021/06/06 19:06:34;;;;;;;3.15;1.52;;;20.40;66.80;;;;;;4934256;29;20043;-69
2021/06/06 19:09:01;;;;;;;2.88;1.27;;;20.10;67.60;;;;;;4934429;29;20694;-70
2021/06/06 19:11:32;;;;;;;10.32;2.65;;;19.90;68.60;;;;;;4934915;29;20499;-70
2021/06/06 19:13:58;;;;;;;4.78;2.10;;;19.70;69.80;;;;;;4934419;29;20079;-72
2021/06/06 19:16:23;;;;;;;4.05;1.70;;;19.50;70.60;;;;;;4933918;29;20574;-70
2021/06/06 19:18:50;;;;;;;5.90;1.80;;;19.30;71.20;;;;;;4934542;29;20376;-68
2021/06/06 19:21:16;;;;;;;3.38;1.50;;;19.10;71.60;;;;;;4933890;29;20114;-69
2021/06/06 19:23:44;;;;;;;2.47;1.50;;;19.00;72.40;;;;;;4934536;29;20038;-76
2021/06/06 19:26:12;;;;;;;2.25;1.40;;;18.90;72.90;;;;;;4933458;29;20028;-73
2021/06/06 19:28:40;;;;;;;3.55;1.50;;;18.80;73.70;;;;;;4934556;29;20471;-71
2021/06/06 19:31:07;;;;;;;3.80;1.67;;;18.70;74.40;;;;;;4917382;29;20028;-68
2021/06/06 19:33:34;;;;;;;4.45;1.52;;;18.60;75.20;;;;;;4933919;29;20039;-69
2021/06/06 19:36:00;;;;;;;2.35;1.50;;;18.40;75.50;;;;;;4933999;29;20111;-69
2021/06/06 19:38:29;;;;;;;4.78;2.10;;;18.30;76.10;;;;;;4934139;29;20030;-67
2021/06/06 19:40:56;;;;;;;3.70;1.65;;;18.20;76.50;;;;;;4933708;29;20024;-68
2021/06/06 19:43:24;;;;;;;3.70;1.73;;;18.10;77.60;;;;;;4934524;29;20083;-69
2021/06/06 19:45:50;;;;;;;4.30;1.60;;;18.00;78.90;;;;;;4934241;29;20113;-72
2021/06/06 19:48:15;;;;;;;3.17;1.73;;;17.90;79.40;;;;;;4916159;29;20031;-71
2021/06/06 19:50:43;;;;;;;3.88;1.70;;;17.80;80.00;;;;;;4934019;29;20416;-70
2021/06/06 19:53:11;;;;;;;5.60;1.67;;;17.70;79.60;;;;;;4934099;29;20034;-70
2021/06/06 19:55:39;;;;;;;3.85;2.10;;;17.60;79.60;;;;;;4933517;29;20385;-73
2021/06/06 19:58:06;;;;;;;4.32;1.60;;;17.50;80.50;;;;;;4933770;29;20027;-77
2021/06/06 20:00:35;;;;;;;8.60;2.53;;;17.40;80.90;;;;;;4934165;29;20110;-75
2021/06/06 20:03:01;;;;;;;3.45;1.55;;;17.40;81.40;;;;;;4932966;29;20058;-72
2021/06/06 20:05:46;;;;;;;4.53;1.80;;;17.20;81.60;;;;;;4934051;29;20035;-69
2021/06/06 20:08:14;;;;;;;4.22;1.50;;;17.20;82.10;;;;;;4933488;29;20159;-75
2021/06/06 20:10:43;;;;;;;4.18;1.52;;;17.10;82.40;;;;;;4934259;29;20040;-68
2021/06/06 20:13:10;;;;;;;3.08;1.55;;;17.00;82.50;;;;;;4933884;29;20012;-68
2021/06/06 20:15:40;;;;;;;2.70;1.70;;;16.90;82.80;;;;;;4932838;29;20456;-69
2021/06/06 20:18:08;;;;;;;5.45;2.03;;;16.80;83.10;;;;;;4933377;29;20023;-68
2021/06/06 20:20:34;;;;;;;4.03;1.73;;;16.70;84.20;;;;;;4933887;29;20036;-69
2021/06/06 20:23:04;;;;;;;4.93;2.42;;;16.70;84.50;;;;;;4933806;29;20042;-67
2021/06/06 20:25:36;;;;;;;4.67;1.73;;;16.60;84.70;;;;;;4933731;29;20034;-68
2021/06/06 20:28:06;;;;;;;2.55;1.70;;;16.50;85.00;;;;;;4933231;29;20420;-67
2021/06/06 20:30:32;;;;;;;5.10;2.38;;;16.40;85.30;;;;;;4932999;29;20035;-67
2021/06/06 20:33:00;;;;;;;3.47;1.83;;;16.40;86.30;;;;;;4933119;29;20030;-70
2021/06/06 20:35:36;;;;;;;4.18;1.92;;;16.30;87.10;;;;;;4934339;29;20043;-69
2021/06/06 20:38:03;;;;;;;4.13;1.88;;;16.20;87.30;;;;;;4935772;29;20027;-73
2021/06/06 20:40:29;;;;;;;4.97;1.67;;;16.10;87.40;;;;;;4936743;29;20065;-72
2021/06/06 20:42:55;;;;;;;4.22;2.17;;;16.10;88.20;;;;;;4936401;29;20028;-77
2021/06/06 20:45:26;;;;;;;4.68;1.73;;;16.10;87.60;;;;;;4936079;29;20055;-69
2021/06/06 20:47:54;;;;;;;2.42;1.73;;;16.00;87.10;;;;;;4946205;29;20094;-72
2021/06/06 20:50:22;;;;;;;5.53;1.85;;;16.00;87.20;;;;;;4955016;29;20451;-70
2021/06/06 20:52:48;;;;;;;3.97;1.95;;;15.90;86.50;;;;;;4954938;28;20059;-72
2021/06/06 20:55:17;;;;;;;2.53;1.52;;;15.90;86.30;;;;;;4955611;29;20043;-73
2021/06/06 20:57:42;;;;;;;3.05;1.73;;;15.90;86.60;;;;;;4954847;28;20110;-72
2021/06/06 21:00:11;;;;;;;2.40;1.63;;;15.80;86.60;;;;;;4954330;28;20058;-75
2021/06/06 21:02:37;;;;;;;7.57;1.77;;;15.80;86.50;;;;;;4955654;29;20383;-71
2021/06/06 21:05:04;;;;;;;4.28;1.90;;;15.70;86.60;;;;;;4937489;29;20377;-78
2021/06/06 21:07:30;;;;;;;3.67;1.85;;;15.70;86.60;;;;;;4955373;29;20114;-73
2021/06/06 21:09:57;;;;;;;4.07;2.10;;;15.70;86.60;;;;;;4955207;29;20114;-69
2021/06/06 21:12:24;;;;;;;3.92;1.90;;;15.60;86.90;;;;;;4954877;29;20023;-69
2021/06/06 21:14:50;;;;;;;5.00;2.25;;;15.60;87.20;;;;;;4955064;28;20024;-73
2021/06/06 21:17:15;;;;;;;6.90;2.70;;;15.50;87.00;;;;;;4955085;28;20023;-69
2021/06/06 21:19:41;;;;;;;3.92;2.00;;;15.50;87.00;;;;;;4954838;29;20097;-68
2021/06/06 21:22:08;;;;;;;3.33;1.70;;;15.40;86.80;;;;;;4955027;29;20395;-69
2021/06/06 21:24:35;;;;;;;7.35;2.53;;;15.40;86.90;;;;;;4955296;29;20039;-72
2021/06/06 21:27:00;;;;;;;3.60;1.92;;;15.30;86.90;;;;;;4954196;29;20030;-70
2021/06/06 21:29:26;;;;;;;3.78;1.90;;;15.30;86.50;;;;;;4955123;29;20039;-72
2021/06/06 21:31:52;;;;;;;5.20;2.40;;;15.30;86.30;;;;;;4954867;29;20118;-70
2021/06/06 21:34:17;;;;;;;3.95;2.10;;;15.30;86.20;;;;;;4954486;29;20507;-71
2021/06/06 21:36:43;;;;;;;2.45;2.08;;;15.20;86.10;;;;;;4954818;28;20062;-71
2021/06/06 21:39:13;;;;;;;4.68;1.95;;;15.20;86.00;;;;;;4937828;29;20510;-69
2021/06/06 21:41:41;;;;;;;4.70;2.40;;;15.20;86.30;;;;;;4954224;29;20022;-72
2021/06/06 21:44:07;;;;;;;6.95;2.30;;;15.10;85.90;;;;;;4954539;29;20035;-68
2021/06/06 21:46:33;;;;;;;6.07;2.78;;;15.10;85.70;;;;;;4954818;29;20026;-70
2021/06/06 21:48:59;;;;;;;7.10;2.15;;;15.10;86.00;;;;;;4953758;29;20106;-68
2021/06/06 21:51:26;;;;;;;5.05;2.22;;;15.10;86.00;;;;;;4954885;29;20118;-71
2021/06/06 21:53:52;;;;;;;3.58;1.98;;;15.00;85.90;;;;;;4953768;29;20452;-69
2021/06/06 21:56:19;;;;;;;3.55;1.60;;;15.00;85.50;;;;;;4954972;28;20476;-73
2021/06/06 21:58:44;;;;;;;4.43;2.10;;;14.90;85.40;;;;;;4954510;29;20098;-68
2021/06/06 22:01:15;;;;;;;5.38;1.92;;;14.90;85.80;;;;;;4936761;29;20123;-67
2021/06/06 22:03:41;;;;;;;2.70;2.05;;;14.90;86.00;;;;;;4954601;29;20027;-68
2021/06/06 22:06:10;;;;;;;6.38;2.10;;;14.80;86.10;;;;;;4954102;29;20027;-71
2021/06/06 22:08:35;;;;;;;4.65;2.17;;;14.80;86.80;;;;;;4953869;29;20098;-70
2021/06/06 22:11:06;;;;;;;5.28;2.17;;;14.70;87.00;;;;;;4954109;28;20127;-72
2021/06/06 22:13:33;;;;;;;5.13;2.28;;;14.70;87.80;;;;;;4954764;29;20384;-70
2021/06/06 22:15:59;;;;;;;6.00;2.15;;;14.70;88.50;;;;;;4954993;29;20506;-74
2021/06/06 22:21:53;;;;;;;5.90;2.20;;;14.50;89.60;;;;;;4954615;29;20469;-80
2021/06/06 22:24:55;;;;;;;5.65;2.45;;;14.50;90.10;;;;;;4954564;29;20109;-71
2021/06/06 22:27:58;;;;;;;5.90;2.55;;;14.40;90.40;;;;;;4954372;28;20026;-71
2021/06/06 22:31:01;;;;;;;5.03;2.13;;;14.30;90.30;;;;;;4953791;29;20070;-72
2021/06/06 22:34:04;;;;;;;3.85;2.35;;;14.30;90.10;;;;;;4954428;29;20070;-77
2021/06/06 22:37:07;;;;;;;5.38;2.33;;;14.20;90.10;;;;;;4953417;29;20083;-69
2021/06/06 22:40:10;;;;;;;7.88;2.20;;;14.20;90.20;;;;;;4954309;29;20438;-71
2021/06/06 22:43:13;;;;;;;4.72;2.13;;;14.10;90.40;;;;;;4954304;28;20106;-69